INFORMAÇÕES METEOROLÓGICAS
METAR FOR WPDL
ADDS - METARS form results

(2022 UTC 24 April 2019)
Data provider http://aviationweather.gov/metar/data/
 
Forecast for: WPDL (DILLI ARPT/TIMOR, TP)
Text: TAF WPDL 241544Z 2418/2506 15005KT CAVOK
Forecast period: 1800 UTC 24 April 2019 to 0000 UTC 25 April 2019
Forecast type: FROM: standard forecast or significant change
Winds: from the SSE (150 degrees) at 6 MPH (5 knots; 2.6 m/s)
Visibility: 6 or more miles 10+ km)
Ceiling: unknown
Clouds: missing
Weather: NSW  (no significant weather)
Text: FM250000 30007KT CAVOK
Forecast period: 0000 to 0600 UTC 25 April 2019
Forecast type: FROM: standard forecast or significant change
Winds: from the WNW (300 degrees) at 8 MPH (7 knots; 3.6 m/s)
Visibility: 6 or more miles 10+ km)
Ceiling: unknown
Clouds: missing
Weather: NSW  (no significant weather)

 MAPA DO AEROPORTO

 INFORMAÇÕES DA PISTA
Pista 08 Tamanho da pista 6065 ft Largura da pista 98 ft
Elevação da pista 17 ft Ranhura da pista 201 ft Proa da pista 77
Pista 26 Tamanho da pista 6065 ft Largura da pista 98 ft
Elevação da pista 25 ft Ranhura da pista 0 ft Proa da pista 257

 FREQUÊNCIAS DO AEROPORTO
Tipo APP Nome COMORO APP Frequência 122.9 MHZ
Tipo GND Nome COMORO GND Frequência 133.9 MHZ
Tipo MISC Nome PCL Frequência 125.5 MHZ

 AUXÍLIOS DE NAVEGAÇÃO PRÓXIMOS AO AEROPORTO
Tipo VOR-DME Nome Dili Frequência 113400 KHZ
Tipo NDB Nome Dili Frequência 391 KHZ



Powered by Mercosul Lnhas Aereas